Terminal Aerodrome Forecast
Issued by NWS Sterling, VA

Home | Current Version | Previous Version | Text Only | Print | Product List | Glossary On
Versions: 1 2 3 4 5 6 7 8 9 10 11 12 13 14 15 16 17 18 19 20 21 22 23 24 25 26 27
000
FTUS41 KLWX 302341
TAFIAD
TAF
KIAD 302341Z 0100/0206 17007KT P6SM FEW060 SCT250
     FM011300 19013G20KT P6SM SCT025 OVC035
     FM011500 19014G21KT P6SM SCT030 OVC050
     FM011800 18015G24KT P6SM SCT035 OVC045
     FM020000 19015G24KT P6SM -SHRA VCTS SCT030CB OVC050
     FM020300 21015G23KT P6SM SCT020 OVC060=

USA.gov is the U.S. government's official web portal to all federal, state and local government web resources and services.